Time;durP1;ratioP1;P1;durP2;ratioP2;P2;SDS_P1;SDS_P2;PMS_P1;PMS_P2;Temp;Humidity;BMP_temperature;BMP_pressure;BME280_temperature;BME280_humidity;BME280_pressure;Samples;Min_cycle;Max_cycle;Signal;HPM_P1;HPM_P2
2023/10/05 00:01:26;;;;;;;2.15;1.25;;;20.40;74.10;;;;;;4980547;28;20197;-71
2023/10/05 00:03:52;;;;;;;1.50;1.40;;;20.50;74.10;;;;;;4986910;28;20188;-71
2023/10/05 00:06:26;;;;;;;1.70;1.60;;;20.40;74.00;;;;;;4993941;28;20192;-71
2023/10/05 00:08:56;;;;;;;1.50;1.40;;;20.50;74.10;;;;;;4970431;28;20715;-71
2023/10/05 00:11:29;;;;;;;1.35;1.23;;;20.40;74.00;;;;;;4977150;28;20280;-71
2023/10/05 00:14:06;;;;;;;1.50;1.40;;;20.40;73.90;;;;;;4987171;28;20184;-71
2023/10/05 00:16:38;;;;;;;1.70;1.48;;;20.40;73.40;;;;;;4977308;28;20235;-71
2023/10/05 00:19:12;;;;;;;2.70;1.45;;;20.40;73.90;;;;;;4977345;28;20224;-71
2023/10/05 00:21:48;;;;;;;2.38;1.50;;;20.40;74.00;;;;;;4977059;28;20192;-71
2023/10/05 00:24:18;;;;;;;1.52;1.40;;;20.40;74.00;;;;;;4994721;28;20587;-71
2023/10/05 00:26:49;;;;;;;1.63;1.52;;;20.40;73.90;;;;;;4976505;28;20204;-71
2023/10/05 00:29:24;;;;;;;1.67;1.45;;;20.40;74.00;;;;;;4999152;28;20248;-71
2023/10/05 00:31:50;;;;;;;2.38;1.58;;;20.40;74.00;;;;;;4984017;28;20214;-71
2023/10/05 00:36:49;;;;;;;2.58;1.80;;;20.40;73.80;;;;;;5007852;28;20276;-71
2023/10/05 00:39:19;;;;;;;1.88;1.67;;;20.40;74.50;;;;;;4980423;28;20219;-71
2023/10/05 00:41:49;;;;;;;1.48;1.25;;;20.40;73.70;;;;;;4983154;28;20201;-71
2023/10/05 00:44:15;;;;;;;1.52;1.35;;;20.40;73.70;;;;;;5001014;28;20263;-71
2023/10/05 00:46:50;;;;;;;1.30;1.20;;;20.40;73.70;;;;;;4985813;28;20188;-71
2023/10/05 00:49:23;;;;;;;1.60;1.50;;;20.40;73.70;;;;;;4976752;28;20212;-71
2023/10/05 00:52:04;;;;;;;1.30;1.20;;;20.40;73.70;;;;;;5009103;28;20235;-71
2023/10/05 00:54:31;;;;;;;1.50;1.38;;;20.40;73.80;;;;;;5001474;28;20208;-71
2023/10/05 00:57:06;;;;;;;1.80;1.30;;;20.40;73.80;;;;;;4986454;28;20179;-71
2023/10/05 00:59:32;;;;;;;1.27;1.17;;;20.40;73.80;;;;;;5009630;28;20207;-71
2023/10/05 01:02:21;;;;;;;1.60;1.40;;;20.40;73.80;;;;;;4982581;28;20192;-71
2023/10/05 01:07:29;;;;;;;1.45;1.35;;;20.40;73.30;;;;;;5003706;28;20203;-71
2023/10/05 01:10:21;;;;;;;1.90;1.48;;;20.40;73.40;;;;;;4989227;28;20247;-71
2023/10/05 01:12:48;;;;;;;2.63;1.20;;;20.40;73.30;;;;;;4998042;28;20200;-71
2023/10/05 01:15:24;;;;;;;1.95;1.48;;;20.40;73.30;;;;;;4976576;28;20185;-71
2023/10/05 01:17:51;;;;;;;1.30;1.20;;;20.30;73.60;;;;;;4999243;28;20188;-71
2023/10/05 01:22:47;;;;;;;1.10;1.00;;;20.30;73.40;;;;;;5006367;28;20189;-71
2023/10/05 01:25:14;;;;;;;1.20;1.10;;;20.40;73.60;;;;;;5008760;28;20192;-71
2023/10/05 01:27:50;;;;;;;1.27;1.17;;;20.30;73.60;;;;;;4989023;28;20189;-71
2023/10/05 01:30:16;;;;;;;1.20;1.05;;;20.30;73.40;;;;;;4992376;28;20246;-71
2023/10/05 01:32:44;;;;;;;1.23;1.13;;;20.30;73.30;;;;;;4965893;28;20184;-71
2023/10/05 01:35:14;;;;;;;2.20;1.15;;;20.30;73.20;;;;;;4981251;28;20207;-71
2023/10/05 01:37:43;;;;;;;1.25;1.13;;;20.30;73.20;;;;;;4973375;28;20193;-71
2023/10/05 01:42:47;;;;;;;1.38;1.27;;;20.30;73.30;;;;;;4987981;28;20188;-71
2023/10/05 01:45:16;;;;;;;1.75;1.20;;;20.30;73.20;;;;;;4999273;28;20189;-71
2023/10/05 01:47:45;;;;;;;1.83;1.50;;;20.30;73.20;;;;;;4981421;28;20192;-71
2023/10/05 01:50:19;;;;;;;1.65;1.33;;;20.30;73.20;;;;;;5003222;28;20223;-71
2023/10/05 01:52:55;;;;;;;1.70;1.52;;;20.30;73.20;;;;;;4981907;28;20190;-71
2023/10/05 01:55:21;;;;;;;1.65;1.40;;;20.30;73.30;;;;;;4984478;28;20183;-71
2023/10/05 01:57:48;;;;;;;1.30;1.20;;;20.30;73.20;;;;;;4999106;28;20177;-71
2023/10/05 02:00:23;;;;;;;1.40;1.30;;;20.30;73.30;;;;;;4985503;28;20551;-71
2023/10/05 02:02:49;;;;;;;1.55;1.45;;;20.30;73.30;;;;;;4986323;28;20205;-71
2023/10/05 02:05:19;;;;;;;1.30;1.20;;;20.30;73.20;;;;;;4986887;28;20180;-71
2023/10/05 02:07:49;;;;;;;1.17;1.08;;;20.30;73.20;;;;;;4976613;28;20189;-71
2023/10/05 02:10:21;;;;;;;1.23;1.13;;;20.30;73.20;;;;;;4975982;28;20177;-71
2023/10/05 02:12:54;;;;;;;1.30;1.15;;;20.30;73.30;;;;;;4972085;28;20201;-71
2023/10/05 02:15:29;;;;;;;1.30;1.20;;;20.30;73.20;;;;;;4994347;28;20267;-71
2023/10/05 02:18:12;;;;;;;1.30;1.20;;;20.30;73.30;;;;;;4999260;28;20304;-71
2023/10/05 02:20:42;;;;;;;1.30;1.20;;;20.30;73.20;;;;;;4981383;28;20692;-71
2023/10/05 02:24:10;;;;;;;1.55;1.13;;;20.30;73.20;;;;;;4985188;28;20192;-71
2023/10/05 02:28:48;;;;;;;1.30;1.20;;;20.30;73.20;;;;;;4999799;28;20224;-71
2023/10/05 02:31:14;;;;;;;1.40;1.20;;;20.30;73.20;;;;;;4983848;28;20682;-71
2023/10/05 02:33:42;;;;;;;1.55;1.30;;;20.30;73.20;;;;;;4967039;28;20185;-71
2023/10/05 02:36:11;;;;;;;1.38;1.27;;;20.30;73.20;;;;;;4966766;28;20287;-71
2023/10/05 02:38:39;;;;;;;1.80;1.05;;;20.30;73.20;;;;;;4975517;28;20287;-71
2023/10/05 02:41:07;;;;;;;1.30;1.20;;;20.30;73.30;;;;;;4990936;28;20200;-71
2023/10/05 02:43:39;;;;;;;1.30;1.05;;;20.30;72.90;;;;;;4975526;28;20243;-71
2023/10/05 02:46:11;;;;;;;1.30;1.20;;;20.20;73.10;;;;;;4958974;28;20283;-71
2023/10/05 02:48:41;;;;;;;1.20;1.10;;;20.20;73.10;;;;;;4990883;28;20219;-71
2023/10/05 02:51:10;;;;;;;1.38;0.90;;;20.20;73.10;;;;;;4970090;28;20213;-71
2023/10/05 02:53:57;;;;;;;1.35;1.25;;;20.20;73.10;;;;;;4994077;28;20603;-71
2023/10/05 02:56:30;;;;;;;1.33;1.23;;;20.30;73.30;;;;;;4997012;28;20188;-71
2023/10/05 02:59:02;;;;;;;2.42;1.10;;;20.20;73.10;;;;;;4992823;28;20213;-71
2023/10/05 03:01:32;;;;;;;0.98;0.90;;;20.30;73.20;;;;;;4994769;28;20288;-71
2023/10/05 03:04:09;;;;;;;1.40;1.30;;;20.20;72.90;;;;;;4962564;28;20189;-71
2023/10/05 03:06:39;;;;;;;1.20;1.10;;;20.30;72.90;;;;;;4994574;28;20198;-71
2023/10/05 03:09:08;;;;;;;1.20;1.10;;;20.20;72.80;;;;;;4978586;28;20205;-71
2023/10/05 03:11:46;;;;;;;1.10;1.00;;;20.20;72.90;;;;;;4994815;28;20239;-71
2023/10/05 03:14:17;;;;;;;0.95;0.80;;;20.20;72.70;;;;;;4978364;28;20668;-71
2023/10/05 03:16:47;;;;;;;1.40;0.98;;;20.20;73.10;;;;;;4994353;28;20181;-71
2023/10/05 03:19:20;;;;;;;1.30;1.20;;;20.20;73.10;;;;;;4961965;28;20259;-71
2023/10/05 03:21:52;;;;;;;1.15;1.05;;;20.20;73.10;;;;;;4992266;28;20231;-71
2023/10/05 03:24:19;;;;;;;1.17;1.05;;;20.20;73.20;;;;;;4994788;28;20196;-71
2023/10/05 03:26:51;;;;;;;1.10;1.10;;;20.20;73.10;;;;;;4993542;28;20243;-70
2023/10/05 03:29:21;;;;;;;1.92;1.10;;;20.20;73.10;;;;;;4978061;28;20209;-71
2023/10/05 03:32:02;;;;;;;1.00;0.90;;;20.20;73.10;;;;;;4994108;28;20263;-71
2023/10/05 03:34:30;;;;;;;1.20;1.10;;;20.20;72.80;;;;;;4994548;28;20230;-71
2023/10/05 03:36:56;;;;;;;1.05;0.95;;;20.20;72.70;;;;;;4994286;28;20239;-71
2023/10/05 03:39:28;;;;;;;1.85;1.48;;;20.20;72.70;;;;;;4994167;28;20209;-71
2023/10/05 03:41:54;;;;;;;1.10;0.98;;;20.20;72.80;;;;;;4994768;28;20192;-70
2023/10/05 03:44:21;;;;;;;1.10;1.00;;;20.20;72.60;;;;;;4977969;28;20181;-70
2023/10/05 03:46:47;;;;;;;1.00;1.00;;;20.20;72.70;;;;;;4977579;28;20177;-71
2023/10/05 03:49:17;;;;;;;1.17;1.00;;;20.20;72.90;;;;;;4977998;28;20205;-70
2023/10/05 03:51:49;;;;;;;0.90;0.90;;;20.20;72.90;;;;;;4977539;28;20258;-71
2023/10/05 03:54:18;;;;;;;0.95;0.95;;;20.20;73.10;;;;;;5006871;28;20191;-70
2023/10/05 03:56:46;;;;;;;1.40;1.30;;;20.20;73.00;;;;;;4995038;28;20200;-70
2023/10/05 03:59:13;;;;;;;1.30;1.10;;;20.20;72.90;;;;;;4973780;28;20282;-70
2023/10/05 04:01:38;;;;;;;1.02;1.02;;;20.20;73.10;;;;;;4999030;28;20242;-70
2023/10/05 04:04:08;;;;;;;1.10;1.10;;;20.20;73.10;;;;;;4997897;28;20192;-70
2023/10/05 04:06:34;;;;;;;1.60;1.17;;;20.20;73.10;;;;;;4993901;28;20181;-70
2023/10/05 04:09:00;;;;;;;1.33;1.23;;;20.20;72.90;;;;;;5004789;28;20216;-70
2023/10/05 04:11:27;;;;;;;1.00;0.93;;;20.20;72.90;;;;;;5000255;28;20216;-70
2023/10/05 04:13:54;;;;;;;1.10;0.90;;;20.20;72.70;;;;;;4999002;28;20267;-70
2023/10/05 04:16:26;;;;;;;0.82;0.80;;;20.20;72.60;;;;;;4982089;28;20188;-70
2023/10/05 04:18:53;;;;;;;1.30;1.17;;;20.20;72.80;;;;;;4981373;28;20208;-71
2023/10/05 04:21:22;;;;;;;1.13;1.02;;;20.20;72.60;;;;;;4998976;28;20176;-71
2023/10/05 04:23:52;;;;;;;1.00;0.90;;;20.20;72.50;;;;;;4983441;28;20193;-71
2023/10/05 04:26:22;;;;;;;1.42;0.90;;;20.20;72.50;;;;;;4997086;28;20193;-70
2023/10/05 04:28:57;;;;;;;1.30;1.20;;;20.20;72.40;;;;;;4998621;28;20225;-71
2023/10/05 04:31:25;;;;;;;1.23;1.13;;;20.10;72.60;;;;;;5001696;28;20213;-70
2023/10/05 04:33:54;;;;;;;1.38;1.27;;;20.20;73.10;;;;;;4981085;28;20185;-70
2023/10/05 04:36:22;;;;;;;1.35;1.10;;;20.20;72.90;;;;;;4998738;28;20199;-71
2023/10/05 04:38:51;;;;;;;1.60;1.17;;;20.10;72.90;;;;;;4995216;28;20296;-70
2023/10/05 04:41:19;;;;;;;1.17;0.90;;;20.20;72.80;;;;;;4976982;28;20202;-71
2023/10/05 04:43:48;;;;;;;1.30;1.13;;;20.10;72.90;;;;;;4977266;28;20185;-71
2023/10/05 04:46:18;;;;;;;1.40;1.25;;;20.10;73.00;;;;;;4993169;28;20188;-71
2023/10/05 04:48:55;;;;;;;1.20;1.10;;;20.20;73.00;;;;;;4985317;28;20232;-71
2023/10/05 04:51:28;;;;;;;1.20;0.95;;;20.20;72.70;;;;;;4978024;28;20240;-71
2023/10/05 04:53:58;;;;;;;1.35;1.25;;;20.20;72.60;;;;;;4982901;28;20188;-70
2023/10/05 04:57:22;;;;;;;1.20;1.00;;;20.10;72.20;;;;;;4976777;28;20236;-71
2023/10/05 05:04:52;;;;;;;1.13;1.02;;;20.20;72.70;;;;;;4979859;28;20271;-70
2023/10/05 05:07:21;;;;;;;1.40;1.17;;;20.10;72.60;;;;;;4992304;28;20184;-71
2023/10/05 05:09:50;;;;;;;1.48;1.20;;;20.10;72.70;;;;;;4972570;28;20263;-70
2023/10/05 05:12:16;;;;;;;1.15;1.05;;;20.10;72.70;;;;;;4996314;28;20236;-71
2023/10/05 05:14:44;;;;;;;1.20;1.10;;;20.10;72.50;;;;;;4959386;28;20271;-71
2023/10/05 05:17:19;;;;;;;1.30;1.20;;;20.10;72.50;;;;;;4992187;28;20268;-71
2023/10/05 05:19:46;;;;;;;1.40;1.30;;;20.10;72.40;;;;;;4980167;28;20288;-71
2023/10/05 05:22:12;;;;;;;1.88;1.20;;;20.10;73.20;;;;;;4981804;28;20211;-70
2023/10/05 05:24:38;;;;;;;1.73;1.27;;;20.10;72.30;;;;;;4963663;28;20224;-71
2023/10/05 05:29:44;;;;;;;1.15;1.05;;;20.10;72.60;;;;;;4983400;28;20213;-71
2023/10/05 05:32:10;;;;;;;1.30;1.20;;;20.10;73.00;;;;;;4975345;28;20209;-70
2023/10/05 05:34:44;;;;;;;1.65;1.10;;;20.10;73.00;;;;;;4960119;28;20264;-70
2023/10/05 05:37:20;;;;;;;1.60;1.10;;;20.10;72.60;;;;;;4996962;28;20184;-70
2023/10/05 05:39:46;;;;;;;1.00;1.00;;;20.10;72.70;;;;;;4983048;28;20218;-70
2023/10/05 05:42:15;;;;;;;1.30;1.10;;;20.10;72.90;;;;;;4998761;28;20189;-70
2023/10/05 05:44:41;;;;;;;1.83;1.30;;;20.20;72.80;;;;;;4964361;28;20199;-70
2023/10/05 05:47:13;;;;;;;1.25;1.15;;;20.10;72.70;;;;;;5000846;28;20271;-70
2023/10/05 05:49:46;;;;;;;1.23;1.08;;;20.10;72.50;;;;;;4995255;28;20749;-70
2023/10/05 05:52:14;;;;;;;1.27;1.15;;;20.10;72.40;;;;;;4983324;28;20307;-70
2023/10/05 05:54:42;;;;;;;1.35;1.25;;;20.10;72.40;;;;;;4962291;28;20216;-70
2023/10/05 05:57:11;;;;;;;1.98;1.30;;;20.10;72.30;;;;;;4978372;28;20220;-70
2023/10/05 05:59:39;;;;;;;1.30;1.20;;;20.10;72.40;;;;;;4958678;28;20210;-70
2023/10/05 06:02:07;;;;;;;1.20;1.10;;;20.10;72.40;;;;;;4994476;28;20184;-70
2023/10/05 06:04:38;;;;;;;1.73;1.40;;;20.10;72.40;;;;;;4959263;28;20201;-70
2023/10/05 06:07:11;;;;;;;1.40;1.30;;;20.10;72.50;;;;;;4995103;28;20189;-71
2023/10/05 06:09:46;;;;;;;1.80;1.10;;;20.10;72.60;;;;;;4978982;28;20209;-70
2023/10/05 06:12:16;;;;;;;1.10;1.00;;;20.10;72.80;;;;;;4999325;28;20219;-70
2023/10/05 06:14:42;;;;;;;2.08;1.20;;;20.10;72.70;;;;;;4959460;28;20188;-70
2023/10/05 06:17:09;;;;;;;1.27;1.17;;;20.10;72.60;;;;;;5000898;28;20629;-70
2023/10/05 06:19:36;;;;;;;1.42;1.33;;;20.10;72.60;;;;;;4998316;28;20211;-70
2023/10/05 06:22:04;;;;;;;1.65;1.20;;;20.10;72.60;;;;;;4977943;28;20196;-70
2023/10/05 06:24:30;;;;;;;1.20;1.10;;;20.10;72.60;;;;;;4984952;28;20194;-70
2023/10/05 06:26:56;;;;;;;1.17;1.08;;;20.10;72.50;;;;;;4985870;28;20199;-70
2023/10/05 06:29:21;;;;;;;1.30;1.20;;;20.10;72.40;;;;;;4994082;28;20212;-69
2023/10/05 06:31:47;;;;;;;1.20;1.10;;;20.10;72.40;;;;;;4996281;28;20208;-70
2023/10/05 06:34:13;;;;;;;1.35;1.20;;;20.10;72.40;;;;;;4994064;28;20221;-70
2023/10/05 06:36:39;;;;;;;1.10;1.02;;;20.10;72.40;;;;;;4962090;28;20188;-69
2023/10/05 06:39:14;;;;;;;1.50;1.17;;;20.10;72.50;;;;;;4992137;28;20205;-70
2023/10/05 06:41:44;;;;;;;1.52;1.10;;;20.10;72.30;;;;;;4997033;28;20187;-70
2023/10/05 06:44:10;;;;;;;1.40;1.20;;;20.10;72.50;;;;;;4994310;28;20195;-70
2023/10/05 06:46:40;;;;;;;1.48;1.38;;;20.10;72.50;;;;;;5000053;28;20203;-70
2023/10/05 06:49:06;;;;;;;2.03;1.10;;;20.10;72.50;;;;;;4977092;28;20219;-70
2023/10/05 06:51:32;;;;;;;1.45;1.17;;;20.10;72.40;;;;;;4992048;28;20212;-70
2023/10/05 06:53:58;;;;;;;1.98;1.48;;;20.10;72.40;;;;;;4995791;28;20220;-70
2023/10/05 06:56:26;;;;;;;2.08;1.27;;;20.10;72.60;;;;;;4995175;28;20292;-70
2023/10/05 06:58:52;;;;;;;1.13;1.02;;;20.20;72.50;;;;;;4995068;28;20746;-70
2023/10/05 07:01:21;;;;;;;1.13;1.00;;;20.10;72.50;;;;;;4992875;28;20239;-70
2023/10/05 07:03:57;;;;;;;1.95;1.23;;;20.10;72.60;;;;;;4989856;28;20690;-70
2023/10/05 07:06:24;;;;;;;1.83;1.27;;;20.10;72.50;;;;;;4978641;28;20187;-70
2023/10/05 07:08:54;;;;;;;1.65;1.30;;;20.10;72.50;;;;;;4991724;28;20208;-70
2023/10/05 07:11:21;;;;;;;2.88;1.25;;;20.10;72.50;;;;;;4994261;28;20216;-70
2023/10/05 07:13:48;;;;;;;2.40;1.30;;;20.10;72.40;;;;;;4989751;28;20170;-70
2023/10/05 07:16:15;;;;;;;1.40;1.30;;;20.10;72.40;;;;;;4992007;28;20195;-70
2023/10/05 07:18:42;;;;;;;2.42;1.40;;;20.20;72.60;;;;;;4960479;28;20232;-70
2023/10/05 07:21:09;;;;;;;1.30;1.20;;;20.20;72.60;;;;;;4987807;28;20258;-71
2023/10/05 07:23:36;;;;;;;1.30;1.20;;;20.10;72.40;;;;;;4961760;28;20275;-70
2023/10/05 07:26:04;;;;;;;1.55;1.42;;;20.20;72.50;;;;;;4997486;28;20201;-71
2023/10/05 07:28:32;;;;;;;1.58;1.48;;;20.20;72.60;;;;;;4984164;28;20212;-70
2023/10/05 07:30:59;;;;;;;1.50;1.40;;;20.20;72.60;;;;;;4974594;28;20205;-70
2023/10/05 07:33:26;;;;;;;1.90;1.60;;;20.20;72.60;;;;;;4974161;28;20227;-70
2023/10/05 07:35:53;;;;;;;1.60;1.40;;;20.20;72.60;;;;;;4994506;28;20651;-70
2023/10/05 07:38:20;;;;;;;1.50;1.40;;;20.20;72.60;;;;;;4995101;28;20212;-70
2023/10/05 07:40:47;;;;;;;1.27;1.13;;;20.20;72.60;;;;;;4994710;28;20228;-70
2023/10/05 07:43:13;;;;;;;1.75;1.30;;;20.20;72.60;;;;;;4995767;28;20185;-70
2023/10/05 07:45:39;;;;;;;1.58;1.48;;;20.20;72.70;;;;;;4995796;28;20185;-70
2023/10/05 07:48:06;;;;;;;3.15;1.63;;;20.20;72.60;;;;;;4981336;28;20224;-70
2023/10/05 07:50:34;;;;;;;1.73;1.33;;;20.20;72.70;;;;;;4982824;28;20195;-70
2023/10/05 07:52:59;;;;;;;1.50;1.30;;;20.20;72.70;;;;;;4979724;28;20188;-70
2023/10/05 07:55:25;;;;;;;1.50;1.40;;;20.20;72.70;;;;;;4997226;28;20185;-70
2023/10/05 07:57:51;;;;;;;1.95;1.58;;;20.20;72.70;;;;;;4996829;28;20181;-70
2023/10/05 08:00:20;;;;;;;2.83;1.40;;;20.20;72.60;;;;;;4995266;28;20197;-70
2023/10/05 08:02:46;;;;;;;1.98;1.40;;;20.20;72.60;;;;;;4992242;28;20653;-70
2023/10/05 08:05:12;;;;;;;2.22;1.52;;;20.20;72.60;;;;;;4991519;28;20264;-70
2023/10/05 08:07:39;;;;;;;2.28;1.65;;;20.20;72.50;;;;;;4979694;28;20192;-70
2023/10/05 08:10:13;;;;;;;1.30;1.20;;;20.20;72.40;;;;;;4997224;28;20202;-70
2023/10/05 08:12:39;;;;;;;1.27;1.10;;;20.30;72.50;;;;;;4980182;28;20212;-70
2023/10/05 08:15:06;;;;;;;1.88;1.10;;;20.30;72.60;;;;;;4996673;28;20675;-70
2023/10/05 08:17:33;;;;;;;1.63;1.20;;;20.30;72.60;;;;;;4994544;28;20185;-70
2023/10/05 08:19:59;;;;;;;1.55;1.20;;;20.30;72.60;;;;;;4991602;28;20198;-70
2023/10/05 08:22:24;;;;;;;1.98;1.30;;;20.30;72.60;;;;;;4994738;28;20195;-70
2023/10/05 08:24:52;;;;;;;1.40;1.30;;;20.30;72.60;;;;;;4992931;28;20182;-70
2023/10/05 08:27:20;;;;;;;1.60;1.48;;;20.30;72.60;;;;;;4993689;28;20185;-70
2023/10/05 08:29:45;;;;;;;1.63;1.38;;;20.30;72.70;;;;;;4992889;28;20224;-70
2023/10/05 08:32:15;;;;;;;1.52;1.23;;;20.30;72.70;;;;;;4989949;28;20226;-70
2023/10/05 08:34:41;;;;;;;1.67;1.23;;;20.30;72.70;;;;;;4993437;28;20224;-70
2023/10/05 08:37:08;;;;;;;1.38;1.27;;;20.30;72.70;;;;;;4978970;28;20177;-71
2023/10/05 08:39:37;;;;;;;3.10;1.48;;;20.30;72.60;;;;;;4976740;28;20208;-70
2023/10/05 08:42:11;;;;;;;1.73;1.30;;;20.30;72.70;;;;;;4976913;28;20235;-70
2023/10/05 08:44:41;;;;;;;1.40;1.27;;;20.30;72.60;;;;;;4978852;28;20199;-70
2023/10/05 08:47:12;;;;;;;1.40;1.27;;;20.30;72.60;;;;;;4994762;28;20197;-70
2023/10/05 08:49:43;;;;;;;1.60;1.50;;;20.30;72.60;;;;;;4976414;28;20259;-70
2023/10/05 08:52:19;;;;;;;1.58;1.40;;;20.30;72.60;;;;;;5001875;28;20695;-70
2023/10/05 08:54:46;;;;;;;1.70;1.42;;;20.30;72.70;;;;;;4994661;28;20326;-70
2023/10/05 08:57:13;;;;;;;1.52;1.20;;;20.30;72.60;;;;;;4994534;28;20177;-71
2023/10/05 08:59:47;;;;;;;1.50;1.17;;;20.30;72.70;;;;;;4977524;28;20211;-70
2023/10/05 09:02:18;;;;;;;1.30;1.20;;;20.30;72.60;;;;;;4992672;28;20628;-71
2023/10/05 09:05:14;;;;;;;1.92;1.40;;;20.30;72.70;;;;;;4970421;28;20188;-70
2023/10/05 09:07:41;;;;;;;1.38;1.17;;;20.30;72.70;;;;;;4976556;28;20205;-69
2023/10/05 09:10:15;;;;;;;1.67;1.58;;;20.30;72.70;;;;;;4977800;28;20197;-70
2023/10/05 09:12:46;;;;;;;1.75;1.30;;;20.30;72.60;;;;;;4985271;28;20216;-70
2023/10/05 09:20:37;;;;;;;1.52;1.40;;;20.40;72.70;;;;;;4992341;28;20208;-70
2023/10/05 09:23:09;;;;;;;1.75;1.27;;;20.40;72.70;;;;;;4993919;28;20232;-70
2023/10/05 09:25:45;;;;;;;1.20;1.10;;;20.30;72.50;;;;;;5000912;28;20271;-70
2023/10/05 09:28:13;;;;;;;1.88;1.52;;;20.40;72.70;;;;;;4993175;28;20204;-70
2023/10/05 09:31:07;;;;;;;1.65;1.38;;;20.40;72.80;;;;;;5000618;28;20189;-71
2023/10/05 09:33:36;;;;;;;1.60;1.30;;;20.40;72.80;;;;;;4983110;28;20279;-70
2023/10/05 09:36:19;;;;;;;1.73;1.48;;;20.40;72.70;;;;;;4991402;28;20188;-70
2023/10/05 09:38:46;;;;;;;2.00;1.10;;;20.40;72.60;;;;;;4972925;28;20201;-70
2023/10/05 09:41:20;;;;;;;1.42;1.27;;;20.40;72.70;;;;;;4989087;28;20212;-70
2023/10/05 09:43:58;;;;;;;1.63;1.25;;;20.40;72.70;;;;;;4976213;28;20189;-70
2023/10/05 09:46:27;;;;;;;1.58;1.33;;;20.40;72.70;;;;;;4992200;28;20192;-70
2023/10/05 09:48:53;;;;;;;1.40;1.20;;;20.40;72.80;;;;;;4988734;28;20269;-70
2023/10/05 09:51:20;;;;;;;1.20;1.10;;;20.40;72.70;;;;;;4972643;28;20204;-70
2023/10/05 09:53:52;;;;;;;1.58;1.13;;;20.40;72.60;;;;;;4991955;28;20188;-70
2023/10/05 09:56:20;;;;;;;1.50;1.23;;;20.40;72.60;;;;;;4972564;28;20193;-70
2023/10/05 09:58:46;;;;;;;2.08;1.40;;;20.40;72.60;;;;;;4981206;28;20209;-70
2023/10/05 10:01:14;;;;;;;1.30;1.20;;;20.40;72.60;;;;;;4988274;28;20212;-70
2023/10/05 10:03:45;;;;;;;1.48;1.38;;;20.40;72.80;;;;;;4979364;28;20191;-70
2023/10/05 10:06:18;;;;;;;1.33;1.20;;;20.40;72.70;;;;;;4963595;28;20199;-70
2023/10/05 10:08:57;;;;;;;1.77;1.20;;;20.40;72.50;;;;;;4983468;28;20212;-70
2023/10/05 10:11:31;;;;;;;1.92;1.60;;;20.40;72.70;;;;;;4991539;28;20204;-70
2023/10/05 10:14:01;;;;;;;1.63;1.20;;;20.40;72.60;;;;;;4992730;28;20320;-70
2023/10/05 10:16:28;;;;;;;1.60;1.42;;;20.40;72.80;;;;;;4969366;28;20185;-70
2023/10/05 10:19:04;;;;;;;1.38;1.23;;;20.50;72.90;;;;;;4990931;28;20212;-70
2023/10/05 10:21:46;;;;;;;1.48;1.25;;;20.40;72.70;;;;;;4997406;28;20185;-70
2023/10/05 10:24:20;;;;;;;1.88;1.40;;;20.40;72.90;;;;;;4975894;28;20181;-70
2023/10/05 10:27:15;;;;;;;1.40;1.30;;;20.40;73.00;;;;;;5000214;28;20181;-69
2023/10/05 10:29:51;;;;;;;1.35;1.25;;;20.50;72.90;;;;;;4991068;28;20216;-70
2023/10/05 10:32:19;;;;;;;1.58;1.30;;;20.40;72.70;;;;;;4986863;28;20204;-70
2023/10/05 10:34:49;;;;;;;1.27;1.10;;;20.50;72.80;;;;;;4982636;28;20208;-70
2023/10/05 10:37:40;;;;;;;2.00;1.48;;;20.50;72.90;;;;;;4962341;28;20255;-70
2023/10/05 10:43:09;;;;;;;1.30;1.20;;;20.50;72.90;;;;;;4994555;28;20571;-70
2023/10/05 10:45:42;;;;;;;1.45;1.30;;;20.50;72.80;;;;;;4973545;28;20196;-70
2023/10/05 10:48:15;;;;;;;1.92;1.17;;;20.50;72.80;;;;;;4979385;28;20217;-70
2023/10/05 10:50:40;;;;;;;2.42;1.40;;;20.50;72.70;;;;;;4984386;28;20224;-70
2023/10/05 10:53:16;;;;;;;1.60;1.50;;;20.50;72.60;;;;;;4997055;28;20227;-70
2023/10/05 10:55:54;;;;;;;1.40;1.30;;;20.50;73.50;;;;;;5005188;28;20203;-70
2023/10/05 10:58:24;;;;;;;1.17;1.08;;;20.50;73.00;;;;;;4997088;28;20210;-70
2023/10/05 11:01:13;;;;;;;1.88;1.23;;;20.50;73.00;;;;;;4994310;28;20183;-70
2023/10/05 11:03:41;;;;;;;1.23;1.13;;;20.50;73.40;;;;;;4988941;28;20247;-70
2023/10/05 11:06:09;;;;;;;1.58;1.30;;;20.50;73.40;;;;;;4992492;28;20278;-70
2023/10/05 11:08:40;;;;;;;2.05;1.40;;;20.50;73.40;;;;;;4959416;28;20201;-71
2023/10/05 11:11:19;;;;;;;2.13;1.92;;;20.50;73.30;;;;;;5000276;28;20205;-71
2023/10/05 11:13:56;;;;;;;1.50;1.35;;;20.50;73.40;;;;;;4983756;28;20196;-69
2023/10/05 11:16:45;;;;;;;2.47;1.30;;;20.50;73.00;;;;;;5003103;28;20204;-69
2023/10/05 11:19:20;;;;;;;1.55;1.35;;;20.50;73.40;;;;;;5003182;28;20259;-70
2023/10/05 11:21:46;;;;;;;1.98;1.40;;;20.50;72.90;;;;;;4995259;28;20188;-70
2023/10/05 11:24:16;;;;;;;1.60;1.50;;;20.50;72.70;;;;;;5001725;28;20260;-69
2023/10/05 11:27:23;;;;;;;2.13;1.67;;;20.50;72.90;;;;;;4977972;28;20185;-70
2023/10/05 11:29:48;;;;;;;1.83;1.67;;;20.50;73.30;;;;;;5000405;28;20220;-70
2023/10/05 11:32:20;;;;;;;2.22;1.70;;;20.50;72.60;;;;;;5011648;28;20208;-70
2023/10/05 11:34:46;;;;;;;1.55;1.35;;;20.50;72.50;;;;;;4996009;28;20191;-70
2023/10/05 11:37:18;;;;;;;2.92;1.75;;;20.50;72.70;;;;;;4994425;28;20561;-70
2023/10/05 11:39:50;;;;;;;2.83;1.80;;;20.50;72.60;;;;;;4993946;28;20312;-70
2023/10/05 11:42:24;;;;;;;2.22;1.75;;;20.50;72.30;;;;;;4982081;28;20204;-71
2023/10/05 11:45:00;;;;;;;2.13;1.60;;;20.50;72.50;;;;;;4991627;28;20427;-70
2023/10/05 11:47:36;;;;;;;1.70;1.52;;;20.50;72.60;;;;;;4984814;28;20196;-70
2023/10/05 11:50:08;;;;;;;1.50;1.30;;;20.50;72.60;;;;;;4995280;28;20184;-70
2023/10/05 11:52:38;;;;;;;1.92;1.52;;;20.50;72.50;;;;;;4996452;28;20211;-71
2023/10/05 11:55:11;;;;;;;2.75;2.22;;;20.50;72.40;;;;;;5000806;28;20184;-70
2023/10/05 11:57:38;;;;;;;2.47;2.00;;;20.50;72.50;;;;;;4977346;28;20200;-70
2023/10/05 12:00:06;;;;;;;1.90;1.70;;;20.50;72.30;;;;;;4970378;28;20186;-70
2023/10/05 12:02:33;;;;;;;2.15;1.95;;;20.50;72.50;;;;;;4993478;28;20240;-70
2023/10/05 12:04:59;;;;;;;3.63;1.95;;;20.50;72.20;;;;;;4974091;28;20181;-70
2023/10/05 12:07:26;;;;;;;3.75;2.33;;;20.50;72.30;;;;;;4990027;28;20184;-70
2023/10/05 12:09:51;;;;;;;3.22;2.10;;;20.50;72.20;;;;;;4998093;28;20295;-70
2023/10/05 12:12:18;;;;;;;2.30;2.08;;;20.50;72.30;;;;;;4984155;28;20296;-70
2023/10/05 12:14:44;;;;;;;2.60;1.90;;;20.50;72.50;;;;;;4990293;28;20188;-70
2023/10/05 12:17:11;;;;;;;2.47;1.90;;;20.50;72.10;;;;;;4998612;28;20707;-70
2023/10/05 12:19:38;;;;;;;2.58;2.13;;;20.50;72.00;;;;;;4995284;28;20208;-70
2023/10/05 12:22:06;;;;;;;3.72;2.42;;;20.50;72.10;;;;;;4983627;28;20185;-70
2023/10/05 12:24:33;;;;;;;3.08;2.30;;;20.50;72.00;;;;;;4981909;28;20284;-70
2023/10/05 12:26:59;;;;;;;4.53;2.00;;;20.50;72.00;;;;;;4983335;28;20208;-70
2023/10/05 12:29:29;;;;;;;3.13;2.70;;;20.50;72.00;;;;;;4983450;28;20212;-70
2023/10/05 12:32:00;;;;;;;4.38;2.55;;;20.50;71.80;;;;;;5005461;28;20212;-70
2023/10/05 12:34:27;;;;;;;3.67;2.80;;;20.50;71.80;;;;;;4997419;28;20217;-70
2023/10/05 12:36:53;;;;;;;3.25;2.67;;;20.50;71.90;;;;;;5005304;28;20193;-70
2023/10/05 12:39:20;;;;;;;3.20;2.40;;;20.50;72.70;;;;;;4991374;28;20289;-70
2023/10/05 12:41:48;;;;;;;4.60;2.47;;;20.50;71.70;;;;;;4994165;28;20224;-70
2023/10/05 12:44:14;;;;;;;3.97;2.78;;;20.50;72.00;;;;;;4981225;28;20180;-70
2023/10/05 12:46:41;;;;;;;4.47;2.70;;;20.50;71.40;;;;;;4972522;28;20196;-70
2023/10/05 12:49:08;;;;;;;3.33;2.50;;;20.50;71.40;;;;;;4983947;28;20239;-70
2023/10/05 12:51:36;;;;;;;5.18;2.60;;;20.50;71.90;;;;;;4998678;28;20196;-70
2023/10/05 12:54:08;;;;;;;4.07;2.75;;;20.50;71.90;;;;;;4988680;28;20177;-70
2023/10/05 12:56:38;;;;;;;3.88;2.58;;;20.50;72.00;;;;;;4962121;28;20181;-70
2023/10/05 12:59:10;;;;;;;5.03;2.92;;;20.50;71.90;;;;;;4976776;28;20213;-70
2023/10/05 13:01:41;;;;;;;4.47;2.90;;;20.50;72.70;;;;;;4976611;28;20201;-70
2023/10/05 13:04:11;;;;;;;3.83;2.88;;;20.50;71.70;;;;;;4976339;28;20303;-70
2023/10/05 13:06:39;;;;;;;3.47;2.85;;;20.50;71.70;;;;;;4982193;28;20185;-70
2023/10/05 13:09:11;;;;;;;4.50;2.92;;;20.50;71.60;;;;;;4960506;28;20204;-70
2023/10/05 13:11:38;;;;;;;4.10;2.65;;;20.50;71.60;;;;;;4976688;28;20205;-70
2023/10/05 13:14:08;;;;;;;4.32;3.30;;;20.50;71.40;;;;;;4993000;28;20660;-71
2023/10/05 13:16:35;;;;;;;6.18;3.10;;;20.50;71.30;;;;;;4976116;28;20196;-70
2023/10/05 13:19:06;;;;;;;4.80;3.30;;;20.50;70.90;;;;;;4995409;28;20207;-70
2023/10/05 13:21:35;;;;;;;4.03;2.75;;;20.50;70.90;;;;;;4983690;28;20189;-70
2023/10/05 13:24:00;;;;;;;4.30;2.97;;;20.50;70.70;;;;;;4975934;28;20246;-70
2023/10/05 13:26:28;;;;;;;4.22;2.80;;;20.50;71.00;;;;;;4984186;28;20212;-70
2023/10/05 13:28:59;;;;;;;4.03;2.90;;;20.50;70.80;;;;;;4993700;28;20217;-70
2023/10/05 13:31:25;;;;;;;3.95;2.83;;;20.50;71.10;;;;;;4994292;28;20216;-70
2023/10/05 13:33:54;;;;;;;4.30;2.90;;;20.50;71.00;;;;;;4979598;28;20306;-70